메인 페이지
METAR-TAF:

METAR-TAF

공항 :

코지코드, 인도

위도: 11-08-24N, 경도: 75-57-00E, 고도: 104m

현재 날씨관측

예보는 39분 전, 07:30시(UTC)에 발표되었습니다.
4kt
온도 32°C
습도 52%
기압 1010 hPa
시정: 6000m
고도 1500ft 상공 구름 조금

METAR: VOCL 150730Z 10004KT 6000 FEW015 32/21 Q1010 NOSIG

시각: 13:39 (08:09 UTC)

예보

예보는 3 시간 9분 전, 05:00시(UTC)에 발표되었습니다.
예보 대상 시간: 15일 06시부터 16일 12시까지 (UTC)
서북서10kt
시정: 5000m
고도 1500ft 상공 구름 보통
고도 9000ft 상공 구름 많음
연무
일시적
15일 09시부터 15일 12시까지 (UTC)
시정: 2000m
고도 1000ft 상공 구름 보통
고도 2500ft 상공 구름 조금, 적란운.
고도 9000ft 상공 구름 많음
전환 중
15일 17시부터 15일 18시까지 (UTC)
5kt
시정: 4000m
연무
일시적
15일 23시부터 16일 03시까지 (UTC)
시정: 2000m
고도 2500ft 상공 구름 조금, 적란운.
박무
전환 중
16일 05시부터 16일 06시까지 (UTC)
서북서10kt
시정: 5000m
연무
일시적
16일 09시부터 16일 12시까지 (UTC)
시정: 2000m
고도 1000ft 상공 구름 보통
고도 2500ft 상공 구름 조금, 적란운.
고도 9000ft 상공 구름 많음

TAF: VOCL 150500Z 1506/1612 29010KT 5000 HZ SCT015 BKN090 TEMPO 1509/1512 2000 TSRA/RA SCT010 FEW025CB BKN090 BECMG 1517/1518 09005KT 4000 HZ TEMPO 1523/1603 2000 BR FEW025CB BECMG 1605/1606 29010KT 5000 HZ TEMPO 1609/1612 2000 TSRA/RA SCT010 FEW025CB BKN090

4,000개 이상의 공항 관측 자료 및 예보 (METAR 및 TAF 보고).

지도상에서 검색 가능한 기상관측소가 노란 점과 빨간 점으로 표시되어 있습니다.

기상관측소 명을 보려면 표시 위로 마우스를 이동하세요.

날씨 관측과 예보를 보려면 클릭하세요.

지도 변경 : 확대하려면 엑스 표시가 있는 녹색 버튼, 축소하려면 빼기 표시가 있는 녹색 버튼, 다음 페이지의 지도를 보려면 녹색 화살표를 클릭하세요.


METAR-TAF: